Time;durP1;ratioP1;P1;durP2;ratioP2;P2;SDS_P1;SDS_P2;PMS_P1;PMS_P2;Temp;Humidity;BMP_temperature;BMP_pressure;BME280_temperature;BME280_humidity;BME280_pressure;Samples;Min_cycle;Max_cycle;Signal;HPM_P1;HPM_P2
2023/06/11 00:02:21;;;;;;;9.40;8.70;;;29.80;52.40;;;;;;4988941;28;20167;-72
2023/06/11 00:04:49;;;;;;;9.60;8.90;;;29.80;52.40;;;;;;4973539;28;20526;-72
2023/06/11 00:07:17;;;;;;;9.47;8.67;;;29.80;52.50;;;;;;4956365;28;21031;-72
2023/06/11 00:09:43;;;;;;;9.83;8.97;;;29.80;52.40;;;;;;5006911;23;20492;-83
2023/06/11 00:12:14;;;;;;;10.30;9.60;;;29.70;52.40;;;;;;4982862;28;20455;-84
2023/06/11 00:14:41;;;;;;;10.27;9.57;;;29.70;52.40;;;;;;4998648;28;20474;-83
2023/06/11 00:17:07;;;;;;;9.87;9.17;;;29.70;52.40;;;;;;4998663;28;20509;-84
2023/06/11 00:19:33;;;;;;;9.40;8.60;;;29.70;52.40;;;;;;5015740;28;20448;-82
2023/06/11 00:22:02;;;;;;;9.67;9.00;;;29.60;52.40;;;;;;4998309;28;20523;-83
2023/06/11 00:24:28;;;;;;;9.37;8.63;;;29.70;52.50;;;;;;4998432;28;20220;-84
2023/06/11 00:26:59;;;;;;;9.77;9.03;;;29.60;52.50;;;;;;4983929;28;20464;-83
2023/06/11 00:29:27;;;;;;;9.40;8.80;;;29.60;52.50;;;;;;4993447;28;20416;-83
2023/06/11 00:31:56;;;;;;;9.87;9.07;;;29.60;52.50;;;;;;4990126;28;20439;-83
2023/06/11 00:34:25;;;;;;;8.80;8.20;;;29.60;52.50;;;;;;4998107;28;20456;-83
2023/06/11 00:36:53;;;;;;;10.83;10.03;;;29.60;52.50;;;;;;4982127;28;20432;-84
2023/06/11 00:39:19;;;;;;;10.10;9.20;;;29.60;52.50;;;;;;5015099;28;20467;-83
2023/06/11 00:41:45;;;;;;;10.17;9.27;;;29.50;52.40;;;;;;4982408;28;20420;-83
2023/06/11 00:44:17;;;;;;;9.10;8.40;;;29.50;52.40;;;;;;4998683;28;20205;-83
2023/06/11 00:46:47;;;;;;;9.43;8.73;;;29.50;52.40;;;;;;4982515;28;20404;-82
2023/06/11 00:49:16;;;;;;;9.97;9.23;;;29.50;52.50;;;;;;5016230;28;20896;-83
2023/06/11 00:51:43;;;;;;;8.90;8.40;;;29.40;52.40;;;;;;4982558;28;20432;-83
2023/06/11 00:54:16;;;;;;;8.97;8.40;;;29.40;52.40;;;;;;4998376;28;20489;-83
2023/06/11 00:56:51;;;;;;;9.37;8.77;;;29.40;52.40;;;;;;5003255;28;20511;-83
2023/06/11 00:59:19;;;;;;;10.13;9.23;;;29.40;52.40;;;;;;4999784;28;20440;-83
2023/06/11 01:02:05;;;;;;;10.83;10.10;;;29.40;52.50;;;;;;5002730;28;20467;-83
2023/06/11 01:04:33;;;;;;;9.43;8.63;;;29.40;52.50;;;;;;5026107;28;20408;-83
2023/06/11 01:07:08;;;;;;;8.87;8.13;;;29.30;52.50;;;;;;5006784;28;20438;-84
2023/06/11 01:09:36;;;;;;;9.80;9.10;;;29.30;52.50;;;;;;5017524;28;20527;-83
2023/06/11 01:12:08;;;;;;;8.83;8.23;;;29.30;52.50;;;;;;5001065;28;20448;-83
2023/06/11 01:14:35;;;;;;;10.70;10.00;;;29.30;52.50;;;;;;5001193;28;20448;-83
2023/06/11 01:17:17;;;;;;;9.13;8.53;;;29.20;52.50;;;;;;4991264;28;20430;-83
2023/06/11 01:20:10;;;;;;;9.50;8.80;;;29.30;52.60;;;;;;4972485;28;20534;-83
2023/06/11 01:22:49;;;;;;;8.67;8.07;;;29.20;52.50;;;;;;4982648;28;20515;-84
2023/06/11 01:25:24;;;;;;;10.40;9.50;;;29.20;52.60;;;;;;4982258;28;20463;-83
2023/06/11 01:28:02;;;;;;;9.40;8.70;;;29.20;52.60;;;;;;4998818;28;20570;-83
2023/06/11 01:30:32;;;;;;;8.63;8.03;;;29.20;52.70;;;;;;4982426;28;20416;-84
2023/06/11 01:33:00;;;;;;;9.07;8.43;;;29.10;52.60;;;;;;4997906;28;20462;-84
2023/06/11 01:35:33;;;;;;;9.10;8.30;;;29.10;53.20;;;;;;5011277;28;20553;-83
2023/06/11 01:38:02;;;;;;;8.90;8.20;;;29.10;52.70;;;;;;4981269;28;20547;-84
2023/06/11 01:40:41;;;;;;;9.73;8.97;;;29.10;52.70;;;;;;4997570;28;20425;-83
2023/06/11 01:43:09;;;;;;;8.83;8.13;;;29.10;52.70;;;;;;4999250;28;20859;-83
2023/06/11 01:45:38;;;;;;;9.20;8.50;;;29.00;52.70;;;;;;5005268;28;20899;-83
2023/06/11 01:48:07;;;;;;;9.17;8.43;;;29.00;52.80;;;;;;4984199;28;20524;-83
2023/06/11 01:50:35;;;;;;;10.33;9.50;;;29.00;52.80;;;;;;4997302;28;20432;-83
2023/06/11 01:53:01;;;;;;;9.57;8.97;;;29.00;52.90;;;;;;4996810;28;20483;-82
2023/06/11 01:55:28;;;;;;;8.83;8.23;;;29.00;53.00;;;;;;5013589;28;20468;-83
2023/06/11 01:57:54;;;;;;;9.43;8.63;;;29.00;53.00;;;;;;4997321;28;20448;-84
2023/06/11 02:00:22;;;;;;;9.90;9.20;;;28.90;53.00;;;;;;4997448;28;20416;-83
2023/06/11 02:02:53;;;;;;;8.90;8.30;;;28.90;53.00;;;;;;4997454;28;20397;-84
2023/06/11 02:05:19;;;;;;;9.27;8.57;;;28.90;53.10;;;;;;4981276;28;20460;-84
2023/06/11 02:07:45;;;;;;;9.50;8.87;;;28.90;53.10;;;;;;4996984;28;20459;-84
2023/06/11 02:10:13;;;;;;;9.90;9.17;;;28.90;53.20;;;;;;4997072;28;20428;-83
2023/06/11 02:12:39;;;;;;;9.90;9.03;;;28.90;53.20;;;;;;4996821;28;20523;-84
2023/06/11 02:15:06;;;;;;;9.73;9.03;;;28.80;53.20;;;;;;5013185;28;21020;-84
2023/06/11 02:17:32;;;;;;;10.63;9.87;;;28.80;53.20;;;;;;4980883;28;20416;-84
2023/06/11 02:19:58;;;;;;;9.67;8.97;;;28.70;53.20;;;;;;4996958;28;20443;-83
2023/06/11 02:22:24;;;;;;;10.20;9.30;;;28.80;53.30;;;;;;4980911;28;20182;-83
2023/06/11 02:24:50;;;;;;;10.00;9.20;;;28.70;53.30;;;;;;4996705;28;20456;-84
2023/06/11 02:27:15;;;;;;;10.90;9.90;;;28.70;53.30;;;;;;5013963;28;20181;-84
2023/06/11 02:29:46;;;;;;;9.53;8.90;;;28.70;53.40;;;;;;4980617;28;20428;-84
2023/06/11 02:32:15;;;;;;;8.90;8.20;;;28.70;53.40;;;;;;4996836;28;20921;-83
2023/06/11 02:34:42;;;;;;;10.10;9.40;;;28.70;53.40;;;;;;4996813;28;20482;-83
2023/06/11 02:37:08;;;;;;;9.93;9.23;;;28.60;53.40;;;;;;4980506;28;20424;-83
2023/06/11 02:39:42;;;;;;;10.10;9.30;;;28.60;53.40;;;;;;4997274;28;20174;-82
2023/06/11 02:42:08;;;;;;;9.40;8.70;;;28.60;53.50;;;;;;5026509;28;20448;-83
2023/06/11 02:44:36;;;;;;;9.60;8.80;;;28.60;53.50;;;;;;5013816;28;20444;-84
2023/06/11 02:47:07;;;;;;;9.47;8.77;;;28.60;53.60;;;;;;4965448;28;20475;-84
2023/06/11 02:49:34;;;;;;;10.23;9.33;;;28.50;53.60;;;;;;4997744;28;20415;-84
2023/06/11 02:52:00;;;;;;;9.10;8.30;;;28.50;53.60;;;;;;4984018;28;20511;-83
2023/06/11 02:54:28;;;;;;;9.60;8.90;;;28.50;53.60;;;;;;5015549;28;20459;-82
2023/06/11 02:56:54;;;;;;;9.80;9.00;;;28.40;53.60;;;;;;4983937;28;20509;-83
2023/06/11 02:59:25;;;;;;;10.20;9.50;;;28.40;53.60;;;;;;5000127;28;20166;-84
2023/06/11 03:01:51;;;;;;;9.40;8.60;;;28.40;53.70;;;;;;4983668;28;20435;-83
2023/06/11 03:04:22;;;;;;;10.50;9.80;;;28.40;53.70;;;;;;4983676;28;20452;-82
2023/06/11 03:06:48;;;;;;;9.80;9.20;;;28.40;53.70;;;;;;4983669;28;20436;-84
2023/06/11 03:09:16;;;;;;;10.03;9.13;;;28.40;53.80;;;;;;4983705;28;20911;-83
2023/06/11 03:11:42;;;;;;;10.23;9.40;;;28.30;53.70;;;;;;4999884;28;20431;-83
2023/06/11 03:14:10;;;;;;;10.33;9.63;;;28.30;53.80;;;;;;4999664;28;20464;-83
2023/06/11 03:16:38;;;;;;;10.07;9.37;;;28.30;53.90;;;;;;5000692;28;20189;-83
2023/06/11 03:19:04;;;;;;;9.83;9.13;;;28.30;53.90;;;;;;4999633;28;20495;-84
2023/06/11 03:21:35;;;;;;;10.07;9.17;;;28.30;54.00;;;;;;4999724;28;20205;-84
2023/06/11 03:24:04;;;;;;;9.17;8.47;;;28.30;54.00;;;;;;4999441;28;20456;-83
2023/06/11 03:26:32;;;;;;;9.20;8.60;;;28.20;54.00;;;;;;4966546;28;20925;-84
2023/06/11 03:29:01;;;;;;;9.63;8.93;;;28.20;54.00;;;;;;4999552;28;20416;-84
2023/06/11 03:31:29;;;;;;;10.27;9.57;;;28.20;54.10;;;;;;4999640;28;20456;-84
2023/06/11 03:33:55;;;;;;;10.60;9.80;;;28.20;54.10;;;;;;4999230;28;20495;-83
2023/06/11 03:36:21;;;;;;;10.47;9.67;;;28.20;54.10;;;;;;4999518;28;20429;-84
2023/06/11 03:38:48;;;;;;;8.83;8.20;;;28.10;54.10;;;;;;4983073;28;20649;-84
2023/06/11 03:41:16;;;;;;;10.17;9.47;;;28.10;54.20;;;;;;4969528;28;20885;-83
2023/06/11 03:43:43;;;;;;;9.60;8.63;;;28.10;54.20;;;;;;4982537;28;20452;-83
2023/06/11 03:46:11;;;;;;;9.87;9.17;;;28.10;54.20;;;;;;4999199;28;20897;-84
2023/06/11 03:48:38;;;;;;;9.70;8.60;;;28.10;54.30;;;;;;4967156;28;20416;-83
2023/06/11 03:51:04;;;;;;;9.43;8.73;;;28.00;54.30;;;;;;4998951;28;20439;-83
2023/06/11 03:53:32;;;;;;;9.73;9.00;;;28.00;54.30;;;;;;4999172;28;20416;-83
2023/06/11 03:56:01;;;;;;;9.50;8.80;;;28.00;54.30;;;;;;5015952;28;20552;-84
2023/06/11 03:58:29;;;;;;;9.73;9.03;;;28.00;54.40;;;;;;5006735;28;20475;-83
2023/06/11 04:01:00;;;;;;;9.10;8.50;;;28.00;54.40;;;;;;4998399;28;20490;-83
2023/06/11 04:03:31;;;;;;;9.20;8.47;;;28.00;54.50;;;;;;5002017;28;20873;-82
2023/06/11 04:05:57;;;;;;;9.67;8.97;;;27.90;54.40;;;;;;5001607;28;20435;-81
2023/06/11 04:08:25;;;;;;;9.50;8.50;;;27.90;54.50;;;;;;4992160;28;20486;-82
2023/06/11 04:10:52;;;;;;;10.13;9.23;;;27.90;54.50;;;;;;4997985;28;20472;-81
2023/06/11 04:13:20;;;;;;;10.10;9.23;;;27.90;54.50;;;;;;4966730;28;20436;-81
2023/06/11 04:15:46;;;;;;;10.73;9.30;;;27.90;54.50;;;;;;5018088;28;20539;-81
2023/06/11 04:18:12;;;;;;;9.50;8.90;;;27.80;54.50;;;;;;5026272;28;20470;-81
2023/06/11 04:20:39;;;;;;;9.43;8.83;;;27.80;54.60;;;;;;4998192;28;20447;-81
2023/06/11 04:23:05;;;;;;;10.10;9.40;;;27.80;54.60;;;;;;4982278;28;20432;-82
2023/06/11 04:25:36;;;;;;;10.50;9.70;;;27.80;54.70;;;;;;4981725;28;20523;-82
2023/06/11 04:28:03;;;;;;;10.97;10.07;;;27.80;54.70;;;;;;4997764;28;20452;-81
2023/06/11 04:30:29;;;;;;;10.07;9.17;;;27.80;54.80;;;;;;4981485;28;20824;-82
2023/06/11 04:32:55;;;;;;;11.33;10.53;;;27.80;54.90;;;;;;5000264;28;20473;-82
2023/06/11 04:35:24;;;;;;;9.80;9.10;;;27.70;54.80;;;;;;4984346;28;20955;-82
2023/06/11 04:37:51;;;;;;;10.07;9.27;;;27.80;54.90;;;;;;4987377;28;20920;-81
2023/06/11 04:40:25;;;;;;;10.80;10.00;;;27.70;54.90;;;;;;5007205;28;20563;-80
2023/06/11 04:42:53;;;;;;;10.00;9.23;;;27.70;55.00;;;;;;4989239;28;20404;-81
2023/06/11 04:45:20;;;;;;;10.87;10.07;;;27.70;55.00;;;;;;5002657;28;20442;-81
2023/06/11 04:47:46;;;;;;;9.90;9.10;;;27.70;55.10;;;;;;4998972;28;20947;-81
2023/06/11 04:50:20;;;;;;;9.77;9.07;;;27.70;55.10;;;;;;4998422;28;20462;-82
2023/06/11 04:52:51;;;;;;;9.90;9.23;;;27.60;55.10;;;;;;4998062;28;20408;-81
2023/06/11 04:55:18;;;;;;;9.73;9.03;;;27.60;55.10;;;;;;5015175;28;20471;-82
2023/06/11 04:57:46;;;;;;;10.00;9.23;;;27.60;55.20;;;;;;4981885;28;20913;-82
2023/06/11 05:00:13;;;;;;;9.60;8.90;;;27.60;55.30;;;;;;4997625;28;20439;-82
2023/06/11 05:02:46;;;;;;;10.03;9.33;;;27.60;55.40;;;;;;4982258;28;20436;-82
2023/06/11 05:05:14;;;;;;;9.17;8.47;;;27.60;55.40;;;;;;5001095;28;20751;-82
2023/06/11 05:07:41;;;;;;;9.60;8.90;;;27.60;55.50;;;;;;4990357;28;20416;-82
2023/06/11 05:10:07;;;;;;;9.20;8.57;;;27.50;55.40;;;;;;4998052;28;20197;-82
2023/06/11 05:12:33;;;;;;;9.47;8.77;;;27.50;55.50;;;;;;5018713;28;20416;-82
2023/06/11 05:15:05;;;;;;;9.30;8.57;;;27.50;55.50;;;;;;4971468;28;20453;-82
2023/06/11 05:17:33;;;;;;;9.77;9.03;;;27.50;55.60;;;;;;4980534;28;20453;-82
2023/06/11 05:19:59;;;;;;;9.60;9.00;;;27.50;55.60;;;;;;4964499;28;20433;-82
2023/06/11 05:22:27;;;;;;;9.23;8.60;;;27.50;55.60;;;;;;4997244;28;20437;-81
2023/06/11 05:24:54;;;;;;;8.80;8.30;;;27.50;55.70;;;;;;4964813;28;20425;-83
2023/06/11 05:27:21;;;;;;;9.63;8.93;;;27.50;55.70;;;;;;4981705;28;20476;-82
2023/06/11 05:29:50;;;;;;;9.63;8.93;;;27.50;55.70;;;;;;4997354;28;20441;-83
2023/06/11 05:32:17;;;;;;;9.27;8.60;;;27.50;55.80;;;;;;4980095;28;20560;-83
2023/06/11 05:34:43;;;;;;;9.60;8.70;;;27.50;55.90;;;;;;4962762;28;20472;-82
2023/06/11 05:37:11;;;;;;;8.73;8.13;;;27.40;55.90;;;;;;4983337;28;20582;-82
2023/06/11 05:39:37;;;;;;;9.73;8.93;;;27.40;55.90;;;;;;4985367;28;20459;-83
2023/06/11 05:42:06;;;;;;;9.67;8.97;;;27.40;56.00;;;;;;5003766;28;20412;-83
2023/06/11 05:44:34;;;;;;;9.10;8.50;;;27.40;56.00;;;;;;4994647;28;20474;-83
2023/06/11 05:47:04;;;;;;;9.53;8.83;;;27.40;56.00;;;;;;5008628;28;20424;-83
2023/06/11 05:49:35;;;;;;;9.03;8.43;;;27.50;56.10;;;;;;4988231;28;20523;-83
2023/06/11 05:52:01;;;;;;;9.60;8.87;;;27.40;56.10;;;;;;5002929;28;20463;-82
2023/06/11 05:54:30;;;;;;;9.97;8.97;;;27.40;56.10;;;;;;4999429;28;20459;-84
2023/06/11 05:56:59;;;;;;;9.90;9.17;;;27.40;56.20;;;;;;4995988;28;20449;-82
2023/06/11 05:59:27;;;;;;;9.83;8.90;;;27.40;56.10;;;;;;4992316;28;20412;-83
2023/06/11 06:01:56;;;;;;;10.83;10.03;;;27.40;56.10;;;;;;5005682;28;20434;-83
2023/06/11 06:04:25;;;;;;;10.13;9.07;;;27.40;56.10;;;;;;5018469;28;20459;-81
2023/06/11 06:06:55;;;;;;;9.90;9.20;;;27.40;56.20;;;;;;5034166;28;20435;-82
2023/06/11 06:09:26;;;;;;;10.43;9.63;;;27.40;56.20;;;;;;4995895;28;20961;-83
2023/06/11 06:11:52;;;;;;;9.57;8.77;;;27.40;56.20;;;;;;4996813;28;20522;-83
2023/06/11 06:14:21;;;;;;;9.90;9.20;;;27.30;56.10;;;;;;4998050;28;20463;-82
2023/06/11 06:16:50;;;;;;;10.00;9.20;;;27.40;56.20;;;;;;4984665;28;20432;-83
2023/06/11 06:19:23;;;;;;;9.07;8.43;;;27.40;56.80;;;;;;4984526;28;20420;-83
2023/06/11 06:21:51;;;;;;;9.60;8.60;;;27.30;56.10;;;;;;4993373;28;20448;-83
2023/06/11 06:24:20;;;;;;;10.40;9.60;;;27.30;56.10;;;;;;4968544;28;20478;-83
2023/06/11 06:26:47;;;;;;;10.70;9.90;;;27.40;56.20;;;;;;4982746;28;20959;-82
2023/06/11 06:29:17;;;;;;;9.70;9.10;;;27.30;56.00;;;;;;4983794;28;20439;-83
2023/06/11 06:31:43;;;;;;;10.07;9.37;;;27.30;56.10;;;;;;4999568;28;20450;-82
2023/06/11 06:34:09;;;;;;;9.53;8.80;;;27.40;56.10;;;;;;4983532;28;20472;-83
2023/06/11 06:36:35;;;;;;;9.47;8.87;;;27.30;56.00;;;;;;4985653;28;20509;-86
2023/06/11 06:39:02;;;;;;;10.20;9.50;;;27.30;55.90;;;;;;4990335;28;20443;-83
2023/06/11 06:41:30;;;;;;;9.60;8.90;;;27.30;55.80;;;;;;5001565;28;20435;-83
2023/06/11 06:44:01;;;;;;;9.80;9.10;;;27.30;55.70;;;;;;5001856;28;20424;-83
2023/06/11 06:46:28;;;;;;;8.97;8.37;;;27.30;55.80;;;;;;5002240;28;20507;-84
2023/06/11 06:48:54;;;;;;;9.23;8.50;;;27.40;55.70;;;;;;5001766;28;20492;-84
2023/06/11 06:51:21;;;;;;;9.10;8.50;;;27.40;55.60;;;;;;5000452;28;20193;-84
2023/06/11 06:53:52;;;;;;;9.83;8.63;;;27.40;55.60;;;;;;4999089;28;20441;-83
2023/06/11 06:56:21;;;;;;;9.70;9.00;;;27.40;55.60;;;;;;4999184;28;20425;-84
2023/06/11 06:58:48;;;;;;;9.60;8.90;;;27.40;55.70;;;;;;5000695;28;20447;-84
2023/06/11 07:01:14;;;;;;;9.60;9.00;;;27.40;55.70;;;;;;4994132;28;20459;-84
2023/06/11 07:03:41;;;;;;;10.03;9.33;;;27.40;55.80;;;;;;5021463;28;20431;-84
2023/06/11 07:06:09;;;;;;;9.63;8.90;;;27.40;55.80;;;;;;5000252;28;20431;-86
2023/06/11 07:08:40;;;;;;;9.40;8.80;;;27.40;55.90;;;;;;4967868;28;20759;-85
2023/06/11 07:11:06;;;;;;;10.43;9.63;;;27.40;55.90;;;;;;4999776;28;20518;-84
2023/06/11 07:13:39;;;;;;;11.30;10.57;;;27.40;56.00;;;;;;5000203;28;20420;-86
2023/06/11 07:16:10;;;;;;;9.17;8.57;;;27.40;55.90;;;;;;5015868;28;20511;-84
2023/06/11 07:18:41;;;;;;;10.23;9.27;;;27.40;55.90;;;;;;4983652;28;20413;-84
2023/06/11 07:21:10;;;;;;;10.63;9.93;;;27.50;56.00;;;;;;4983462;28;20960;-82
2023/06/11 07:23:38;;;;;;;9.70;9.10;;;27.50;56.00;;;;;;4999860;28;20532;-83
2023/06/11 07:26:07;;;;;;;10.67;9.83;;;27.50;56.00;;;;;;5000045;28;20424;-83
2023/06/11 07:28:35;;;;;;;8.80;8.20;;;27.50;56.00;;;;;;4990583;28;20495;-85
2023/06/11 07:31:01;;;;;;;9.10;8.50;;;27.60;56.00;;;;;;5016151;28;20459;-84
2023/06/11 07:33:28;;;;;;;9.87;9.20;;;27.50;56.00;;;;;;5019202;28;20415;-83
2023/06/11 07:35:56;;;;;;;10.40;9.63;;;27.60;56.10;;;;;;5004948;28;20459;-83
2023/06/11 07:38:25;;;;;;;10.07;9.33;;;27.60;56.20;;;;;;4994224;28;20560;-84
2023/06/11 07:40:56;;;;;;;9.80;9.20;;;27.60;56.10;;;;;;4997503;28;20456;-84
2023/06/11 07:43:24;;;;;;;10.00;9.20;;;27.60;56.10;;;;;;4983337;28;20508;-85
2023/06/11 07:45:49;;;;;;;9.80;9.00;;;27.60;56.20;;;;;;4967151;28;20566;-84
2023/06/11 07:48:16;;;;;;;9.90;9.07;;;27.60;56.20;;;;;;4979164;28;21015;-86
2023/06/11 07:50:49;;;;;;;9.40;8.80;;;27.60;56.20;;;;;;4999425;28;20431;-87
2023/06/11 07:53:19;;;;;;;10.33;9.53;;;27.60;56.20;;;;;;4983261;28;20455;-85
2023/06/11 07:55:49;;;;;;;10.10;9.10;;;27.70;56.20;;;;;;4983035;28;20511;-84
2023/06/11 07:58:18;;;;;;;9.40;8.73;;;27.70;56.20;;;;;;4969550;28;20760;-85
2023/06/11 08:00:46;;;;;;;9.37;8.63;;;27.70;56.20;;;;;;5001370;28;20903;-84
2023/06/11 08:04:08;;;;;;;10.10;9.20;;;27.70;56.20;;;;;;4999496;28;20456;-84
2023/06/11 08:06:43;;;;;;;10.33;9.63;;;27.70;56.20;;;;;;5016264;28;20448;-83
2023/06/11 08:09:18;;;;;;;9.67;9.07;;;27.80;56.20;;;;;;4982915;28;20472;-87
2023/06/11 08:11:43;;;;;;;10.40;9.70;;;27.80;56.30;;;;;;4999256;28;20462;-86
2023/06/11 08:14:09;;;;;;;9.27;8.63;;;27.80;56.30;;;;;;5015813;28;20452;-85
2023/06/11 08:16:45;;;;;;;10.30;9.60;;;27.80;56.30;;;;;;4998688;28;20195;-83
2023/06/11 08:19:12;;;;;;;10.20;9.50;;;27.80;56.30;;;;;;5016173;28;20205;-87
2023/06/11 08:21:38;;;;;;;9.90;9.10;;;27.90;56.40;;;;;;4997602;28;20778;-83
2023/06/11 08:24:05;;;;;;;9.57;8.97;;;27.90;56.70;;;;;;4997027;28;20447;-82
2023/06/11 08:26:33;;;;;;;10.50;9.70;;;27.90;56.30;;;;;;4997986;28;20268;-82
2023/06/11 08:29:01;;;;;;;9.80;9.17;;;27.90;56.30;;;;;;4998452;28;20913;-82
2023/06/11 08:31:27;;;;;;;9.30;8.60;;;27.90;56.30;;;;;;4981805;28;20458;-81
2023/06/11 08:33:53;;;;;;;9.50;8.80;;;27.90;56.30;;;;;;4998267;28;20173;-85
2023/06/11 08:36:20;;;;;;;9.70;9.00;;;28.00;56.40;;;;;;4982017;28;20416;-81
2023/06/11 08:38:48;;;;;;;9.60;8.90;;;28.00;56.40;;;;;;5013426;28;20513;-82
2023/06/11 08:41:16;;;;;;;9.27;8.67;;;28.00;56.40;;;;;;4998152;28;20436;-83
2023/06/11 08:43:49;;;;;;;10.03;9.33;;;28.00;56.40;;;;;;5015230;28;20215;-84
2023/06/11 08:46:15;;;;;;;9.93;9.10;;;28.10;56.40;;;;;;4997852;28;20481;-82
2023/06/11 08:48:43;;;;;;;10.40;9.63;;;28.10;56.40;;;;;;4981905;28;20432;-86
2023/06/11 08:51:12;;;;;;;9.40;8.80;;;28.10;56.50;;;;;;4983812;28;20493;-84
2023/06/11 08:53:39;;;;;;;9.77;9.07;;;28.10;56.50;;;;;;4995606;28;20775;-84
2023/06/11 08:56:09;;;;;;;9.63;9.00;;;28.10;56.50;;;;;;4980555;28;20476;-86
2023/06/11 08:58:37;;;;;;;9.10;8.30;;;28.20;56.50;;;;;;5016019;28;20440;-85
2023/06/11 09:01:10;;;;;;;10.63;9.83;;;28.20;56.50;;;;;;4981741;28;21064;-86
2023/06/11 09:03:46;;;;;;;9.77;9.17;;;28.20;56.40;;;;;;5014333;28;20451;-83
2023/06/11 09:06:15;;;;;;;9.33;8.60;;;28.20;56.40;;;;;;5007247;28;20474;-83
2023/06/11 09:08:43;;;;;;;8.63;8.03;;;28.30;56.40;;;;;;5006563;28;20475;-87
2023/06/11 09:11:09;;;;;;;10.57;9.87;;;28.30;56.40;;;;;;4966026;28;20479;-83
2023/06/11 09:13:35;;;;;;;10.00;9.30;;;28.30;56.40;;;;;;5013873;28;20960;-83
2023/06/11 09:16:02;;;;;;;9.00;8.40;;;28.30;56.30;;;;;;4979267;28;20648;-85
2023/06/11 09:18:31;;;;;;;9.77;8.97;;;28.40;56.30;;;;;;4997561;28;20459;-85
2023/06/11 09:21:02;;;;;;;10.40;9.67;;;28.40;56.20;;;;;;5013555;28;20272;-84
2023/06/11 09:23:33;;;;;;;8.90;8.20;;;28.40;56.30;;;;;;4982413;28;20444;-83
2023/06/11 09:26:02;;;;;;;9.43;8.73;;;28.50;56.30;;;;;;4981127;28;20452;-88
2023/06/11 09:28:35;;;;;;;9.23;8.63;;;28.50;56.20;;;;;;4996691;28;20451;-87
2023/06/11 09:31:05;;;;;;;9.30;8.70;;;28.50;56.10;;;;;;4981395;28;20535;-84
2023/06/11 09:33:35;;;;;;;9.47;8.83;;;28.50;56.10;;;;;;4981213;28;20494;-82
2023/06/11 09:36:04;;;;;;;9.47;8.67;;;28.60;56.20;;;;;;4996710;28;20455;-82
2023/06/11 09:38:36;;;;;;;9.40;8.80;;;28.60;56.10;;;;;;5012585;28;20527;-84
2023/06/11 09:41:06;;;;;;;9.37;8.77;;;28.60;56.10;;;;;;5014219;28;20432;-85
2023/06/11 09:43:33;;;;;;;9.67;8.97;;;28.60;56.00;;;;;;4980907;28;20735;-82
2023/06/11 09:46:02;;;;;;;9.20;8.40;;;28.70;56.00;;;;;;4980166;28;20917;-82
2023/06/11 09:48:31;;;;;;;9.53;8.83;;;28.70;56.00;;;;;;4982225;28;20905;-83
2023/06/11 09:51:00;;;;;;;9.50;8.70;;;28.70;56.00;;;;;;4998060;28;20444;-84
2023/06/11 09:53:31;;;;;;;9.87;9.00;;;28.80;56.00;;;;;;4996933;28;20448;-82
2023/06/11 09:56:00;;;;;;;9.43;8.60;;;28.80;55.90;;;;;;5014382;28;20456;-84
2023/06/11 09:58:28;;;;;;;9.67;9.00;;;28.80;55.80;;;;;;4984188;28;20443;-83
2023/06/11 10:01:00;;;;;;;8.97;8.30;;;28.80;55.70;;;;;;5000994;28;20452;-86
2023/06/11 10:03:27;;;;;;;9.43;8.70;;;28.90;55.70;;;;;;4965377;28;20887;-86
2023/06/11 10:05:54;;;;;;;8.97;8.27;;;28.90;55.50;;;;;;4981501;28;20507;-89
2023/06/11 10:08:24;;;;;;;8.50;7.90;;;29.00;55.50;;;;;;4981472;28;20428;-89
2023/06/11 10:10:54;;;;;;;10.10;9.40;;;29.00;55.30;;;;;;5002564;28;20927;-86
2023/06/11 10:13:33;;;;;;;9.23;8.57;;;29.00;55.20;;;;;;5017610;28;20422;-82
2023/06/11 10:16:06;;;;;;;10.07;9.47;;;29.10;55.10;;;;;;5017930;28;20440;-83
2023/06/11 10:18:32;;;;;;;10.13;9.33;;;29.10;55.10;;;;;;5000877;28;20444;-83
2023/06/11 10:21:03;;;;;;;9.43;8.73;;;29.10;55.00;;;;;;4984079;28;20436;-87
2023/06/11 10:23:40;;;;;;;10.53;9.67;;;29.20;55.00;;;;;;5000670;28;20765;-94
2023/06/11 10:26:06;;;;;;;9.10;8.40;;;29.20;54.90;;;;;;5000597;28;20479;-88
2023/06/11 10:28:48;;;;;;;8.97;8.33;;;29.20;54.70;;;;;;5020877;28;20454;-86
2023/06/11 10:31:39;;;;;;;9.07;8.47;;;29.30;54.60;;;;;;5037460;28;20431;-87
2023/06/11 10:34:06;;;;;;;9.80;9.10;;;29.30;54.40;;;;;;5020018;28;20410;-84
2023/06/11 10:36:36;;;;;;;9.67;9.07;;;29.30;54.30;;;;;;5019963;28;20430;-83
2023/06/11 10:39:08;;;;;;;8.97;8.37;;;29.40;54.40;;;;;;5037594;28;20752;-88
2023/06/11 10:41:39;;;;;;;9.90;9.20;;;29.40;54.30;;;;;;5000328;28;20474;-85
2023/06/11 10:44:09;;;;;;;9.03;8.43;;;29.40;54.00;;;;;;5000248;28;20436;-86
2023/06/11 10:46:52;;;;;;;8.97;8.37;;;29.50;54.00;;;;;;4999893;28;20430;-85
2023/06/11 10:49:26;;;;;;;9.77;9.03;;;29.50;53.80;;;;;;4983252;28;20770;-84
2023/06/11 10:51:52;;;;;;;9.70;8.90;;;29.60;53.80;;;;;;4999687;28;20491;-89
2023/06/11 10:54:35;;;;;;;9.53;8.80;;;29.60;54.10;;;;;;4999283;28;20456;-86
2023/06/11 10:57:05;;;;;;;9.60;8.90;;;29.60;53.70;;;;;;4985327;28;20568;-86
2023/06/11 10:59:32;;;;;;;9.73;9.13;;;29.60;53.70;;;;;;4980073;28;20449;-87
2023/06/11 11:01:57;;;;;;;9.33;8.73;;;29.70;53.60;;;;;;4997268;28;20859;-85
2023/06/11 11:04:26;;;;;;;10.17;9.37;;;29.70;53.50;;;;;;4980369;28;20429;-85
2023/06/11 11:07:03;;;;;;;10.17;9.37;;;29.80;53.40;;;;;;4980081;28;20443;-91
2023/06/11 11:09:29;;;;;;;9.80;9.07;;;29.80;53.20;;;;;;4982519;28;20451;-85
2023/06/11 11:11:58;;;;;;;9.70;9.00;;;29.80;53.00;;;;;;4998591;28;20918;-84
2023/06/11 11:14:29;;;;;;;9.60;8.90;;;29.90;53.00;;;;;;4999755;28;20480;-85
2023/06/11 11:16:55;;;;;;;9.63;8.93;;;29.90;52.90;;;;;;4971171;28;20440;-87
2023/06/11 11:19:24;;;;;;;9.20;8.40;;;29.90;52.80;;;;;;5020654;28;20472;-85
2023/06/11 11:21:53;;;;;;;10.03;9.30;;;29.90;52.70;;;;;;4994910;28;20429;-87
2023/06/11 11:24:20;;;;;;;8.97;8.20;;;30.00;52.60;;;;;;4965928;28;20977;-84
2023/06/11 11:26:49;;;;;;;8.60;8.00;;;30.00;52.60;;;;;;4999029;28;20736;-85
2023/06/11 11:29:15;;;;;;;9.77;8.87;;;30.00;52.50;;;;;;4985776;28;20826;-86
2023/06/11 11:31:43;;;;;;;9.50;8.80;;;30.10;52.40;;;;;;5017882;28;20788;-85
2023/06/11 11:34:09;;;;;;;9.03;8.33;;;30.10;52.30;;;;;;5004658;28;20885;-86
2023/06/11 11:36:35;;;;;;;9.20;8.50;;;30.10;52.20;;;;;;4981873;28;20511;-85
2023/06/11 11:39:14;;;;;;;9.03;8.43;;;30.10;52.00;;;;;;4982423;28;20460;-86
2023/06/11 11:41:53;;;;;;;9.47;8.57;;;30.20;51.90;;;;;;5014700;28;20454;-86
2023/06/11 11:44:20;;;;;;;10.07;9.37;;;30.20;52.50;;;;;;4997888;28;20451;-84
2023/06/11 11:46:46;;;;;;;9.60;8.80;;;30.20;51.70;;;;;;4998511;28;20760;-85
2023/06/11 11:49:13;;;;;;;9.47;8.77;;;30.30;51.70;;;;;;4997957;28;20416;-86
2023/06/11 11:51:45;;;;;;;9.00;8.30;;;30.30;51.60;;;;;;4981485;28;20435;-89
2023/06/11 11:54:14;;;;;;;9.97;9.17;;;30.30;51.70;;;;;;4981718;28;20425;-93
2023/06/11 11:56:43;;;;;;;9.07;8.37;;;30.40;51.60;;;;;;4997620;28;20464;-85
2023/06/11 11:59:24;;;;;;;9.60;8.70;;;30.40;51.70;;;;;;5011661;28;20452;-87
2023/06/11 12:02:02;;;;;;;9.33;8.50;;;30.40;51.50;;;;;;4978512;28;20515;-86
2023/06/11 12:04:34;;;;;;;9.50;8.80;;;30.40;51.50;;;;;;4981801;28;20440;-87
2023/06/11 12:07:10;;;;;;;9.80;8.87;;;30.40;51.60;;;;;;4981808;28;20432;-87
2023/06/11 12:09:38;;;;;;;9.10;8.50;;;30.50;51.60;;;;;;5015194;28;20435;-88
2023/06/11 12:12:05;;;;;;;9.57;8.77;;;30.50;51.40;;;;;;4979820;28;20483;-88
2023/06/11 12:14:31;;;;;;;9.97;9.27;;;30.60;51.30;;;;;;4994266;28;20469;-88
2023/06/11 12:16:57;;;;;;;9.63;8.90;;;30.60;51.20;;;;;;4995105;28;20451;-86
2023/06/11 12:19:23;;;;;;;9.67;8.97;;;30.60;51.20;;;;;;4982231;28;20428;-87
2023/06/11 12:21:51;;;;;;;9.90;9.30;;;30.70;51.30;;;;;;4997588;28;20416;-88
2023/06/11 12:24:17;;;;;;;9.40;8.70;;;30.70;51.30;;;;;;4965356;28;20503;-86
2023/06/11 12:26:49;;;;;;;9.80;9.13;;;30.70;51.30;;;;;;4966072;28;20459;-87
2023/06/11 12:29:18;;;;;;;9.03;8.33;;;30.70;51.20;;;;;;4997481;28;20428;-87
2023/06/11 12:31:46;;;;;;;9.47;8.87;;;30.70;51.20;;;;;;4997504;28;20502;-86
2023/06/11 12:34:18;;;;;;;9.83;9.13;;;30.80;51.20;;;;;;4997060;28;20443;-87
2023/06/11 12:36:46;;;;;;;10.10;9.40;;;30.80;51.10;;;;;;4997662;28;20408;-88
2023/06/11 12:39:17;;;;;;;9.63;8.73;;;30.80;51.00;;;;;;4978874;28;20433;-86
2023/06/11 12:41:47;;;;;;;9.57;8.87;;;30.80;51.00;;;;;;4979209;28;20439;-86
2023/06/11 12:44:15;;;;;;;10.43;9.63;;;30.90;51.00;;;;;;4965735;28;20443;-89
2023/06/11 12:46:41;;;;;;;9.20;8.60;;;30.90;51.10;;;;;;4994688;28;20492;-86
2023/06/11 12:49:07;;;;;;;9.00;8.40;;;30.90;51.00;;;;;;4977996;28;20460;-87
2023/06/11 12:51:36;;;;;;;9.10;8.43;;;30.90;51.00;;;;;;4995264;28;20169;-90
2023/06/11 12:54:02;;;;;;;9.73;8.97;;;31.00;51.00;;;;;;5013006;28;20197;-91